createdAt,value
2023-01-28T00:01:15.099Z,98.21
2023-01-28T00:05:10.858Z,98.22
2023-01-28T00:09:39.507Z,98.07
2023-01-28T00:13:35.095Z,98.12
2023-01-28T00:17:34.841Z,97.98
2023-01-28T00:21:12.043Z,98.10
2023-01-28T00:25:08.560Z,98.07
2023-01-28T00:29:04.623Z,98.06
2023-01-28T00:33:01.959Z,98.21
2023-01-28T00:36:58.770Z,98.42
2023-01-28T02:06:57.057Z,93.49
2023-01-28T02:21:01.764Z,93.89
2023-01-28T02:29:47.807Z,94.90
2023-01-28T02:34:09.769Z,95.29
2023-01-28T03:02:08.770Z,94.48
2023-01-28T03:05:04.861Z,94.73
2023-01-28T03:33:35.725Z,94.22
2023-01-28T03:36:53.773Z,94.59
2023-01-28T03:41:02.752Z,95.13
2023-01-28T03:45:04.185Z,95.23
2023-01-28T03:48:59.170Z,95.50
2023-01-28T03:58:54.180Z,96.06
2023-01-28T04:19:23.583Z,96.10
2023-01-28T04:22:19.468Z,96.13
2023-01-28T04:26:33.279Z,96.22
2023-01-28T04:30:01.151Z,96.52
2023-01-28T04:59:33.927Z,94.95
2023-01-28T05:02:32.031Z,94.98
2023-01-28T05:06:29.246Z,95.21
2023-01-28T05:10:31.557Z,95.58
2023-01-28T05:14:05.830Z,96.06
2023-01-28T05:18:09.740Z,96.09
2023-01-28T05:21:41.440Z,96.28
2023-01-28T05:25:38.698Z,96.56
2023-01-28T05:29:39.152Z,96.64
2023-01-28T05:33:34.169Z,96.89
2023-01-28T05:37:35.591Z,96.91
2023-01-28T05:41:49.632Z,97.02
2023-01-28T05:45:09.192Z,96.96
2023-01-28T05:59:58.284Z,96.25
2023-01-28T06:03:48.679Z,96.16
2023-01-28T06:07:49.614Z,96.69
2023-01-28T06:39:23.261Z,95.67
2023-01-28T06:43:37.278Z,96.20
2023-01-28T06:47:01.308Z,96.51
2023-01-28T06:50:55.192Z,96.98
2023-01-28T06:54:14.713Z,97.24
2023-01-28T06:59:30.729Z,97.60
2023-01-28T07:14:15.350Z,97.14
2023-01-28T07:17:01.988Z,97.18
2023-01-28T07:19:47.568Z,97.03
2023-01-28T07:22:33.334Z,96.90
2023-01-28T07:25:19.152Z,96.77
2023-01-28T07:31:31.901Z,96.79
2023-01-28T07:36:01.127Z,96.90
2023-01-28T08:03:50.037Z,96.06
2023-01-28T08:17:15.329Z,95.67
2023-01-28T08:26:42.340Z,96.60
2023-01-28T08:30:45.322Z,96.89
2023-01-28T08:33:32.519Z,97.05
2023-01-28T08:36:19.607Z,96.95
2023-01-28T08:39:06.458Z,96.78
2023-01-28T08:41:53.803Z,96.75
2023-01-28T08:44:40.901Z,96.64
2023-01-28T08:48:19.521Z,96.44
2023-01-28T08:51:06.890Z,96.44
2023-01-28T08:53:54.195Z,96.53
2023-01-28T08:56:44.828Z,96.41
2023-01-28T09:10:22.238Z,96.30
2023-01-28T09:13:14.592Z,96.57
2023-01-28T09:16:01.005Z,96.63
2023-01-28T09:18:48.537Z,96.41
2023-01-28T09:21:35.091Z,96.34
2023-01-28T09:24:31.642Z,96.36
2023-01-28T09:29:08.128Z,96.82
2023-01-28T09:33:41.702Z,97.48
2023-01-28T09:38:05.190Z,97.85
2023-01-28T09:42:52.499Z,98.20
2023-01-28T09:46:12.866Z,98.48
2023-01-28T09:53:21.556Z,98.18
2023-01-28T09:57:00.148Z,98.13
2023-01-28T10:00:43.084Z,98.03
2023-01-28T10:04:17.624Z,98.07
2023-01-28T10:08:14.703Z,97.82
2023-01-28T10:12:51.084Z,97.71
2023-01-28T10:16:35.104Z,97.83
2023-01-28T10:31:09.421Z,96.73
2023-01-28T10:35:23.905Z,96.84
2023-01-28T10:38:31.198Z,97.19
2023-01-28T10:53:39.231Z,96.83
2023-01-28T11:07:04.526Z,96.67
2023-01-28T11:20:57.918Z,95.85
2023-01-28T11:24:47.912Z,96.09
2023-01-28T11:28:48.087Z,96.85
2023-01-28T11:32:43.062Z,97.00
2023-01-28T11:36:38.522Z,97.30
2023-01-28T11:40:35.704Z,97.40
2023-01-28T11:44:33.396Z,97.70
2023-01-28T11:48:58.405Z,97.74
2023-01-28T11:52:25.592Z,98.10
2023-01-28T11:56:24.018Z,98.23
2023-01-28T12:00:38.608Z,98.17
2023-01-28T12:04:51.379Z,98.11
2023-01-28T12:09:24.593Z,98.45
2023-01-28T12:12:43.180Z,98.46
2023-01-28T12:16:41.901Z,98.38
2023-01-28T12:21:12.004Z,98.39
2023-01-28T12:25:52.151Z,98.22
2023-01-28T12:30:12.742Z,98.16
2023-01-28T12:34:45.774Z,98.08
2023-01-28T12:39:06.353Z,98.25
2023-01-28T12:43:16.731Z,98.13
2023-01-28T12:46:10.735Z,98.06
2023-01-28T12:49:05.398Z,97.35
2023-01-28T12:52:37.273Z,96.88
2023-01-28T12:55:41.509Z,96.52
2023-01-28T12:58:39.034Z,96.50
2023-01-28T13:02:12.164Z,96.21
2023-01-28T13:05:27.417Z,95.98
2023-01-28T13:08:22.229Z,95.67
2023-01-28T13:11:49.900Z,95.52
2023-01-28T13:15:03.879Z,95.83
2023-01-28T13:18:42.152Z,95.98
2023-01-28T13:22:35.956Z,96.22
2023-01-28T13:37:32.675Z,95.47
2023-01-28T13:40:36.462Z,95.38
2023-01-28T14:27:25.768Z,94.02
2023-01-28T14:30:24.721Z,94.21
2023-01-28T14:33:12.983Z,94.56
2023-01-28T14:40:40.186Z,94.99
2023-01-28T14:45:13.833Z,95.09
2023-01-28T14:48:22.066Z,95.77
2023-01-28T14:51:17.511Z,96.21
2023-01-28T14:54:22.426Z,96.09
2023-01-28T14:57:27.739Z,95.87
2023-01-28T15:00:34.814Z,95.61
2023-01-28T15:04:01.719Z,95.53
2023-01-28T15:07:57.687Z,96.10
2023-01-28T15:11:57.034Z,96.34
2023-01-28T15:14:47.358Z,96.59
2023-01-28T15:17:34.573Z,96.45
2023-01-28T15:20:24.413Z,96.13
2023-01-28T15:26:17.388Z,96.06
2023-01-28T15:29:03.995Z,96.12
2023-01-28T15:31:51.242Z,96.08
2023-01-28T15:46:39.791Z,95.61
2023-01-28T15:49:33.108Z,95.75
2023-01-28T15:52:21.212Z,95.69
2023-01-28T15:55:29.730Z,95.32
2023-01-28T15:58:19.522Z,95.19
2023-01-28T16:04:25.280Z,95.24
2023-01-28T16:07:11.999Z,95.37
2023-01-28T16:10:02.085Z,95.46
2023-01-28T16:12:53.001Z,95.22
2023-01-28T16:15:48.861Z,95.23
2023-01-28T16:18:55.775Z,95.47
2023-01-28T16:21:48.957Z,95.51
2023-01-28T16:24:36.540Z,95.31
2023-01-28T16:27:24.577Z,95.22
2023-01-28T16:30:11.943Z,94.96
2023-01-28T16:32:58.502Z,94.78
2023-01-28T16:36:04.453Z,94.45
2023-01-28T16:40:15.493Z,94.32
2023-01-28T16:45:27.857Z,94.64
2023-01-28T16:49:13.730Z,94.77
2023-01-28T16:52:01.241Z,94.74
2023-01-28T16:54:56.349Z,94.65
2023-01-28T16:57:43.797Z,94.28
2023-01-28T17:00:33.284Z,93.77
2023-01-28T17:04:11.791Z,93.38
2023-01-28T17:06:59.070Z,93.62
2023-01-28T17:09:47.810Z,93.48
2023-01-28T17:12:36.592Z,92.78
2023-01-28T17:15:23.270Z,92.39
2023-01-28T17:18:20.709Z,92.05
2023-01-28T17:22:38.810Z,92.31
2023-01-28T17:25:53.510Z,92.56
2023-01-28T17:29:55.724Z,92.76
2023-01-28T17:33:57.088Z,92.63
2023-01-28T17:37:55.221Z,92.54
2023-01-28T17:41:52.172Z,92.39
2023-01-28T17:46:12.053Z,92.13
2023-01-28T17:49:30.694Z,92.14
2023-01-28T17:53:06.299Z,92.03
2023-01-28T17:57:06.258Z,91.65
2023-01-28T18:00:46.139Z,91.59
2023-01-28T18:04:22.966Z,91.44
2023-01-28T18:07:54.399Z,91.54
2023-01-28T18:22:19.245Z,89.95
2023-01-28T18:25:06.122Z,89.75
2023-01-28T18:27:59.862Z,89.52
2023-01-28T18:30:46.512Z,89.36
2023-01-28T18:35:41.831Z,88.42
2023-01-28T18:38:56.227Z,88.43
2023-01-28T18:42:52.064Z,88.55
2023-01-28T18:57:15.905Z,86.31
2023-01-28T19:00:02.695Z,86.36
2023-01-28T19:02:50.655Z,85.23
2023-01-28T19:05:40.444Z,84.59
2023-01-28T19:08:27.445Z,84.25
2023-01-28T19:11:14.191Z,83.91
2023-01-28T19:14:01.196Z,83.92
2023-01-28T19:16:48.541Z,83.66
2023-01-28T19:19:35.054Z,83.77
2023-01-28T19:22:45.709Z,83.90
2023-01-28T19:25:45.659Z,83.76
2023-01-28T19:28:33.187Z,83.70
2023-01-28T19:31:21.514Z,83.94
2023-01-28T19:34:10.477Z,83.65
2023-01-28T19:36:57.105Z,83.62
2023-01-28T19:39:44.104Z,83.89
2023-01-28T19:42:30.663Z,83.77
2023-01-28T19:45:17.702Z,84.11
2023-01-28T19:48:05.080Z,84.02
2023-01-28T19:50:51.768Z,83.88
2023-01-28T19:53:39.859Z,83.89
2023-01-28T19:56:27.421Z,83.75
2023-01-28T19:59:15.113Z,83.64
2023-01-28T20:02:01.386Z,83.79
2023-01-28T20:05:00.109Z,83.79
2023-01-28T20:07:47.316Z,81.97
2023-01-28T20:10:36.938Z,80.39
2023-01-28T20:13:23.224Z,79.38
2023-01-28T20:16:19.144Z,79.46
2023-01-28T20:19:08.211Z,79.40
2023-01-28T20:21:55.060Z,78.77
2023-01-28T20:24:41.282Z,78.99
2023-01-28T20:27:29.025Z,79.30
2023-01-28T20:30:16.161Z,79.27
2023-01-28T20:33:02.902Z,78.99
2023-01-28T20:35:50.136Z,76.90
2023-01-28T20:38:46.433Z,77.76
2023-01-28T20:41:32.865Z,77.87
2023-01-28T20:44:19.534Z,77.85
2023-01-28T20:47:06.217Z,76.07
2023-01-28T20:49:53.078Z,76.00
2023-01-28T20:52:39.770Z,76.91
2023-01-28T20:55:28.464Z,76.87
2023-01-28T20:58:15.380Z,76.26
2023-01-28T21:01:02.785Z,76.32
2023-01-28T21:03:49.564Z,76.47
2023-01-28T21:06:36.629Z,76.89
2023-01-28T21:09:25.368Z,76.90
2023-01-28T21:12:11.995Z,76.99
2023-01-28T21:14:59.079Z,77.02
2023-01-28T21:17:45.672Z,77.50
2023-01-28T21:20:33.761Z,77.74
2023-01-28T21:23:23.437Z,77.90
2023-01-28T21:26:15.997Z,78.24
2023-01-28T21:29:04.594Z,78.20
2023-01-28T21:31:51.327Z,77.18
2023-01-28T21:34:38.162Z,76.87
2023-01-28T21:37:28.628Z,76.28
2023-01-28T21:40:15.750Z,75.42
2023-01-28T21:43:05.351Z,75.36
2023-01-28T21:45:55.618Z,75.64
2023-01-28T21:48:43.151Z,76.34
2023-01-28T21:51:45.786Z,76.53
2023-01-28T21:54:32.334Z,76.38
2023-01-28T21:57:19.416Z,76.62
2023-01-28T22:00:06.487Z,75.13
2023-01-28T22:02:53.034Z,75.50
2023-01-28T22:05:39.426Z,75.51
2023-01-28T22:08:26.199Z,75.41
2023-01-28T22:11:13.268Z,74.77
2023-01-28T22:13:59.783Z,73.87
2023-01-28T22:16:48.474Z,74.22
2023-01-28T22:19:35.431Z,74.53
2023-01-28T22:22:21.819Z,74.62
2023-01-28T22:25:08.951Z,74.41
2023-01-28T22:27:55.465Z,74.23
2023-01-28T22:30:41.761Z,74.65
2023-01-28T22:33:28.022Z,75.03
2023-01-28T22:36:16.029Z,74.61
2023-01-28T22:39:04.937Z,74.23
2023-01-28T22:41:51.614Z,73.82
2023-01-28T22:44:38.205Z,74.24
2023-01-28T22:47:24.719Z,75.60
2023-01-28T22:50:11.659Z,75.85
2023-01-28T22:52:57.993Z,76.10
2023-01-28T22:55:44.678Z,76.37
2023-01-28T22:58:32.032Z,76.05
2023-01-28T23:01:19.117Z,75.81
2023-01-28T23:04:05.729Z,75.50
2023-01-28T23:06:52.477Z,74.55
2023-01-28T23:09:39.564Z,74.55
2023-01-28T23:12:26.204Z,74.37
2023-01-28T23:15:32.042Z,74.32
2023-01-28T23:18:40.077Z,74.70
2023-01-28T23:21:46.749Z,75.14
2023-01-28T23:24:33.526Z,74.55
2023-01-28T23:27:20.071Z,74.78
2023-01-28T23:30:10.233Z,75.25
2023-01-28T23:32:59.124Z,74.72
2023-01-28T23:35:45.867Z,74.45
2023-01-28T23:38:32.243Z,73.88
2023-01-28T23:41:19.297Z,73.72
2023-01-28T23:44:06.140Z,74.06
2023-01-28T23:46:54.701Z,74.23
2023-01-28T23:49:43.699Z,73.85
2023-01-28T23:52:30.828Z,74.08
2023-01-28T23:55:17.251Z,74.70
2023-01-28T23:58:03.876Z,75.25
